KWWR/WWR METAR and TAF weather

Enter ICAO airport designator
Station Type Date Time Source
KWWR METAR 2020/12/05 05:55 UTC NOAA

KWWR 050555Z AUTO 22011KT 10SM CLR M01/M03 A3025 RMK AO2


Station Type Date Time Source
KWWR Decoded METAR 2020/12/05 05:55 UTC NOAA

Woodward, West Woodward Airport, OK, United States (KWWR) 36-26-12N 099-31-16W 667M
Dec 05, 2020 - 12:55 AM EST / 2020.12.05 0555 UTC
Wind: from the SW (220 degrees) at 13 MPH (11 KT):0
Visibility: 10 mile(s):0
Sky conditions: clear
Temperature: 30 F (-1 C)
Windchill: 19 F (-7 C):1
Dew Point: 26 F (-3 C)
Relative Humidity: 86%
Pressure (altimeter): 30.25 in. Hg (1024 hPa)
ob: KWWR 050555Z AUTO 22011KT 10SM CLR M01/M03 A3025 RMK AO2
cycle: 6

Station Type Date Time Source
KWWR TAF 2020/12/05 06:22 UTC NOAA

TAF KWWR 050520Z 0506/0606 27008KT P6SM SKC
FM051400 34010KT P6SM SKC
FM060000 33006KT P6SM SCT250

Example: see airport list